Time;durP1;ratioP1;P1;durP2;ratioP2;P2;SDS_P1;SDS_P2;PMS_P1;PMS_P2;Temp;Humidity;BMP_temperature;BMP_pressure;BME280_temperature;BME280_humidity;BME280_pressure;Samples;Min_cycle;Max_cycle;Signal;HPM_P1;HPM_P2
2023/07/26 00:00:24;;;;;;;4.50;1.80;;;;;;;;;;6232806;23;20387;-77
2023/07/26 00:02:51;;;;;;;8.47;2.40;;;;;;;;;;6225851;23;20558;-80
2023/07/26 00:05:25;;;;;;;4.23;1.93;;;;;;;;;;6225489;23;20500;-78
2023/07/26 00:07:52;;;;;;;5.77;1.80;;;;;;;;;;6225925;23;20410;-79
2023/07/26 00:10:20;;;;;;;7.07;2.17;;;;;;;;;;6229059;23;20425;-78
2023/07/26 00:12:48;;;;;;;4.93;2.20;;;;;;;;;;6236606;23;20465;-79
2023/07/26 00:15:17;;;;;;;9.37;3.13;;;;;;;;;;6237144;23;20413;-79
2023/07/26 00:17:46;;;;;;;3.30;1.73;;;;;;;;;;6238296;23;20460;-79
2023/07/26 00:20:15;;;;;;;5.10;2.03;;;;;;;;;;6232622;23;20441;-80
2023/07/26 00:22:43;;;;;;;4.30;2.17;;;;;;;;;;6235090;23;20420;-79
2023/07/26 00:25:10;;;;;;;5.03;2.10;;;;;;;;;;6238146;23;20394;-80
2023/07/26 00:27:38;;;;;;;6.30;1.47;;;;;;;;;;6236980;23;20386;-80
2023/07/26 00:30:15;;;;;;;5.53;2.03;;;;;;;;;;6237111;23;20422;-80
2023/07/26 00:32:47;;;;;;;12.17;2.07;;;;;;;;;;6230411;23;20824;-78
2023/07/26 00:35:20;;;;;;;11.30;1.63;;;;;;;;;;6226171;23;20418;-80
2023/07/26 00:37:47;;;;;;;4.87;1.60;;;;;;;;;;6236621;23;20507;-79
2023/07/26 00:40:17;;;;;;;4.43;2.00;;;;;;;;;;6236698;23;20391;-79
2023/07/26 00:42:45;;;;;;;3.00;1.77;;;;;;;;;;6225910;23;20391;-79
2023/07/26 00:45:12;;;;;;;2.90;1.67;;;;;;;;;;6224634;23;20952;-79
2023/07/26 00:47:40;;;;;;;2.93;1.97;;;;;;;;;;6232641;23;20476;-79
2023/07/26 00:50:10;;;;;;;5.37;2.33;;;;;;;;;;6229219;23;20426;-79
2023/07/26 00:52:38;;;;;;;3.40;1.20;;;;;;;;;;6231631;23;20410;-80
2023/07/26 00:55:06;;;;;;;8.73;1.73;;;;;;;;;;6233335;23;20410;-78
2023/07/26 00:57:34;;;;;;;5.20;1.83;;;;;;;;;;6234428;23;20430;-78
2023/07/26 01:00:02;;;;;;;4.13;1.47;;;;;;;;;;6230534;23;20444;-79
2023/07/26 01:02:35;;;;;;;7.27;1.90;;;;;;;;;;6224532;23;20446;-79
2023/07/26 01:05:03;;;;;;;4.50;1.60;;;;;;;;;;6225387;23;20691;-79
2023/07/26 01:07:37;;;;;;;5.57;2.53;;;;;;;;;;6223620;23;20410;-80
2023/07/26 01:10:10;;;;;;;2.90;1.80;;;;;;;;;;6223793;23;20397;-80
2023/07/26 01:12:41;;;;;;;3.07;1.67;;;;;;;;;;6232988;23;20394;-80
2023/07/26 01:15:09;;;;;;;2.77;1.60;;;;;;;;;;6230487;23;20424;-79
2023/07/26 01:17:37;;;;;;;7.33;2.40;;;;;;;;;;6230473;23;20452;-79
2023/07/26 01:20:08;;;;;;;2.93;1.23;;;;;;;;;;6228048;23;20445;-79
2023/07/26 01:22:37;;;;;;;4.10;1.87;;;;;;;;;;6227900;23;20550;-78
2023/07/26 01:25:05;;;;;;;7.40;2.20;;;;;;;;;;6228791;23;20401;-78
2023/07/26 01:27:33;;;;;;;3.67;2.77;;;;;;;;;;6230160;23;20470;-79
2023/07/26 01:30:01;;;;;;;3.53;1.37;;;;;;;;;;6231022;23;20418;-79
2023/07/26 01:32:29;;;;;;;6.40;2.50;;;;;;;;;;6224849;23;20480;-79
2023/07/26 01:34:57;;;;;;;5.23;1.40;;;;;;;;;;6224560;23;20410;-80
2023/07/26 01:37:25;;;;;;;3.60;2.27;;;;;;;;;;6222461;23;20446;-80
2023/07/26 01:39:54;;;;;;;4.93;2.03;;;;;;;;;;6225320;23;20391;-78
2023/07/26 01:42:22;;;;;;;3.50;1.80;;;;;;;;;;6234809;23;20386;-79
2023/07/26 01:44:49;;;;;;;4.53;2.30;;;;;;;;;;6236193;23;20544;-80
2023/07/26 01:47:17;;;;;;;5.57;1.90;;;;;;;;;;6233672;23;20394;-80
2023/07/26 01:49:54;;;;;;;5.23;1.80;;;;;;;;;;6234400;23;20838;-78
2023/07/26 01:52:21;;;;;;;4.07;2.53;;;;;;;;;;6234167;23;20416;-78
2023/07/26 01:54:49;;;;;;;4.73;1.80;;;;;;;;;;6236761;23;20386;-78
2023/07/26 01:57:22;;;;;;;3.40;1.80;;;;;;;;;;6235452;23;20446;-79
2023/07/26 01:59:49;;;;;;;5.10;1.53;;;;;;;;;;6236844;23;20472;-79
2023/07/26 02:02:17;;;;;;;5.67;2.10;;;;;;;;;;6236379;23;20664;-79
2023/07/26 02:04:45;;;;;;;4.77;1.77;;;;;;;;;;6234799;23;20461;-79
2023/07/26 02:07:12;;;;;;;3.63;1.67;;;;;;;;;;6236175;23;20660;-79
2023/07/26 02:09:40;;;;;;;6.60;1.77;;;;;;;;;;6235484;23;20456;-78
2023/07/26 02:12:10;;;;;;;4.13;2.10;;;;;;;;;;6235995;23;20425;-79
2023/07/26 02:14:40;;;;;;;2.70;1.57;;;;;;;;;;6236599;23;20438;-78
2023/07/26 02:17:08;;;;;;;2.67;1.57;;;;;;;;;;6240228;23;20457;-78
2023/07/26 02:19:35;;;;;;;4.03;2.00;;;;;;;;;;6237838;23;20418;-78
2023/07/26 02:22:03;;;;;;;4.50;1.80;;;;;;;;;;6235185;23;20399;-78
2023/07/26 02:24:30;;;;;;;5.73;2.47;;;;;;;;;;6234989;23;20401;-78
2023/07/26 02:26:58;;;;;;;7.03;2.20;;;;;;;;;;6234397;23;20410;-78
2023/07/26 02:29:25;;;;;;;11.87;2.93;;;;;;;;;;6233168;23;20417;-78
2023/07/26 02:31:54;;;;;;;6.00;2.90;;;;;;;;;;6227349;23;20414;-78
2023/07/26 02:34:22;;;;;;;5.67;1.73;;;;;;;;;;6220995;23;20420;-79
2023/07/26 02:36:49;;;;;;;8.07;2.00;;;;;;;;;;6221363;23;20391;-79
2023/07/26 02:39:18;;;;;;;3.90;2.30;;;;;;;;;;6220486;23;20450;-78
2023/07/26 02:41:45;;;;;;;3.00;1.83;;;;;;;;;;6228685;23;20779;-78
2023/07/26 02:44:14;;;;;;;4.50;1.63;;;;;;;;;;6232586;23;20407;-78
2023/07/26 02:46:41;;;;;;;3.00;1.80;;;;;;;;;;6228591;23;20410;-78
2023/07/26 02:49:10;;;;;;;4.37;1.80;;;;;;;;;;6222999;23;20410;-77
2023/07/26 02:51:38;;;;;;;6.10;2.23;;;;;;;;;;6226439;23;20390;-78
2023/07/26 02:54:05;;;;;;;4.70;1.70;;;;;;;;;;6226028;23;20421;-78
2023/07/26 02:56:36;;;;;;;9.03;2.30;;;;;;;;;;6225565;23;20418;-79
2023/07/26 02:59:07;;;;;;;4.27;2.00;;;;;;;;;;6222621;23;20457;-80
2023/07/26 03:01:34;;;;;;;5.43;2.40;;;;;;;;;;6224507;23;20418;-77
2023/07/26 03:04:02;;;;;;;4.43;1.83;;;;;;;;;;6222380;23;20401;-79
2023/07/26 03:06:31;;;;;;;6.00;2.30;;;;;;;;;;6220629;23;20442;-79
2023/07/26 03:08:59;;;;;;;5.07;2.20;;;;;;;;;;6220253;23;20767;-77
2023/07/26 03:11:26;;;;;;;5.30;1.93;;;;;;;;;;6225344;23;20418;-78
2023/07/26 03:13:55;;;;;;;9.10;4.00;;;;;;;;;;6231808;23;20421;-78
2023/07/26 03:16:23;;;;;;;3.60;1.87;;;;;;;;;;6224277;23;20414;-78
2023/07/26 03:18:50;;;;;;;3.00;2.00;;;;;;;;;;6224297;23;20433;-77
2023/07/26 03:21:18;;;;;;;3.30;1.33;;;;;;;;;;6229465;23;20662;-78
2023/07/26 03:23:47;;;;;;;4.60;2.37;;;;;;;;;;6227396;23;20496;-78
2023/07/26 03:26:17;;;;;;;4.70;1.83;;;;;;;;;;6221337;23;20449;-77
2023/07/26 03:28:45;;;;;;;4.87;2.10;;;;;;;;;;6222127;23;20438;-77
2023/07/26 03:31:13;;;;;;;4.63;1.93;;;;;;;;;;6223563;23;20395;-79
2023/07/26 03:33:40;;;;;;;6.60;2.27;;;;;;;;;;6222470;23;20400;-78
2023/07/26 03:36:08;;;;;;;2.70;1.60;;;;;;;;;;6219045;23;20414;-77
2023/07/26 03:38:35;;;;;;;7.50;2.13;;;;;;;;;;6219085;23;20442;-79
2023/07/26 03:41:04;;;;;;;7.47;1.83;;;;;;;;;;6220776;23;20835;-79
2023/07/26 03:43:32;;;;;;;5.73;2.50;;;;;;;;;;6224657;23;20428;-79
2023/07/26 03:45:59;;;;;;;4.10;2.43;;;;;;;;;;6222456;23;20780;-77
2023/07/26 03:48:27;;;;;;;3.67;1.97;;;;;;;;;;6222003;23;20791;-78
2023/07/26 03:50:55;;;;;;;4.87;2.30;;;;;;;;;;6226193;23;20804;-79
2023/07/26 03:53:24;;;;;;;8.43;2.70;;;;;;;;;;6228820;23;20429;-78
2023/07/26 03:55:51;;;;;;;5.90;2.10;;;;;;;;;;6227720;23;20415;-79
2023/07/26 03:58:20;;;;;;;4.10;1.97;;;;;;;;;;6229768;23;20446;-78
2023/07/26 04:00:48;;;;;;;4.20;1.90;;;;;;;;;;6229996;23;20387;-78
2023/07/26 04:03:16;;;;;;;6.77;2.33;;;;;;;;;;6229808;23;20718;-78
2023/07/26 04:05:44;;;;;;;3.57;2.37;;;;;;;;;;6228851;23;20441;-78
2023/07/26 04:08:11;;;;;;;3.97;1.67;;;;;;;;;;6229599;23;20386;-78
2023/07/26 04:10:39;;;;;;;3.67;2.37;;;;;;;;;;6231847;23;20391;-78
2023/07/26 04:13:06;;;;;;;7.23;2.47;;;;;;;;;;6230066;23;20432;-78
2023/07/26 04:15:35;;;;;;;3.00;1.80;;;;;;;;;;6229589;23;20433;-78
2023/07/26 04:18:03;;;;;;;6.23;2.37;;;;;;;;;;6231209;23;20442;-79
2023/07/26 04:20:30;;;;;;;5.17;2.33;;;;;;;;;;6234443;23;20418;-78
2023/07/26 04:22:58;;;;;;;3.90;2.77;;;;;;;;;;6232624;23;20426;-78
2023/07/26 04:25:25;;;;;;;3.73;2.00;;;;;;;;;;6232402;23;20393;-79
2023/07/26 04:27:53;;;;;;;3.70;2.20;;;;;;;;;;6231458;23;20416;-78
2023/07/26 04:30:21;;;;;;;5.60;2.40;;;;;;;;;;6230014;23;20675;-78
2023/07/26 04:32:50;;;;;;;3.90;1.93;;;;;;;;;;6221600;23;20453;-78
2023/07/26 04:35:17;;;;;;;4.23;2.13;;;;;;;;;;6220756;23;20866;-76
2023/07/26 04:37:45;;;;;;;4.50;2.07;;;;;;;;;;6218485;23;20486;-78
2023/07/26 04:40:19;;;;;;;5.17;2.27;;;;;;;;;;6222086;23;20410;-79
2023/07/26 04:42:46;;;;;;;3.13;2.07;;;;;;;;;;6222065;23;20782;-79
2023/07/26 04:45:16;;;;;;;4.40;2.60;;;;;;;;;;6223580;23;20390;-78
2023/07/26 04:47:43;;;;;;;7.97;2.40;;;;;;;;;;6230744;23;20402;-79
2023/07/26 04:50:16;;;;;;;3.27;2.20;;;;;;;;;;6233084;23;20377;-78
2023/07/26 04:52:44;;;;;;;4.60;1.60;;;;;;;;;;6234030;23;20393;-79
2023/07/26 04:55:12;;;;;;;5.83;2.90;;;;;;;;;;6227746;23;20390;-78
2023/07/26 04:57:39;;;;;;;5.13;1.80;;;;;;;;;;6227470;23;20402;-77
2023/07/26 05:00:11;;;;;;;4.20;2.30;;;;;;;;;;6229397;23;20492;-79
2023/07/26 05:02:38;;;;;;;4.93;2.40;;;;;;;;;;6230232;23;20718;-79
2023/07/26 05:05:06;;;;;;;3.50;1.80;;;;;;;;;;6229706;23;20441;-79
2023/07/26 05:07:35;;;;;;;5.40;2.00;;;;;;;;;;6230269;23;20397;-79
2023/07/26 05:10:09;;;;;;;4.20;1.73;;;;;;;;;;6231301;23;20425;-79
2023/07/26 05:12:36;;;;;;;3.40;2.00;;;;;;;;;;6222046;23;20411;-79
2023/07/26 05:15:04;;;;;;;4.23;1.90;;;;;;;;;;6221627;23;20425;-79
2023/07/26 05:17:31;;;;;;;2.27;1.40;;;;;;;;;;6221994;23;20426;-79
2023/07/26 05:19:59;;;;;;;3.77;2.17;;;;;;;;;;6220446;23;20481;-77
2023/07/26 05:22:26;;;;;;;2.87;1.67;;;;;;;;;;6220346;23;20465;-77
2023/07/26 05:24:55;;;;;;;5.20;2.03;;;;;;;;;;6220079;23;20410;-79
2023/07/26 05:27:23;;;;;;;5.97;1.83;;;;;;;;;;6221357;23;20404;-78
2023/07/26 05:29:53;;;;;;;4.90;2.23;;;;;;;;;;6220551;23;20410;-78
2023/07/26 05:32:21;;;;;;;3.50;1.73;;;;;;;;;;6227733;23;20429;-78
2023/07/26 05:34:48;;;;;;;5.63;1.77;;;;;;;;;;6228729;23;20493;-78
2023/07/26 05:37:15;;;;;;;23.57;13.80;;;;;;;;;;6227306;23;20445;-78
2023/07/26 05:39:42;;;;;;;2.97;2.00;;;;;;;;;;6231744;23;20442;-78
2023/07/26 05:42:14;;;;;;;5.83;1.90;;;;;;;;;;6234367;23;20411;-78
2023/07/26 05:44:41;;;;;;;3.10;1.70;;;;;;;;;;6233097;23;20420;-78
2023/07/26 05:47:11;;;;;;;4.53;1.60;;;;;;;;;;6234751;23;20453;-78
2023/07/26 05:49:42;;;;;;;4.63;1.90;;;;;;;;;;6234713;23;20461;-78
2023/07/26 05:52:09;;;;;;;4.87;1.80;;;;;;;;;;6233491;23;20461;-78
2023/07/26 05:54:37;;;;;;;4.23;1.80;;;;;;;;;;6229751;23;20587;-78
2023/07/26 05:57:05;;;;;;;3.83;2.20;;;;;;;;;;6228003;23;20513;-78
2023/07/26 05:59:34;;;;;;;5.93;2.20;;;;;;;;;;6226880;23;20785;-78
2023/07/26 06:02:03;;;;;;;5.83;2.30;;;;;;;;;;6223828;23;20395;-79
2023/07/26 06:04:30;;;;;;;3.10;1.50;;;;;;;;;;6223281;23;20434;-78
2023/07/26 06:06:59;;;;;;;3.07;1.60;;;;;;;;;;6223806;23;20654;-79
2023/07/26 06:09:27;;;;;;;3.00;1.30;;;;;;;;;;6226753;23;20422;-79
2023/07/26 06:11:55;;;;;;;2.73;1.63;;;;;;;;;;6225641;23;20500;-79
2023/07/26 06:14:24;;;;;;;3.73;1.53;;;;;;;;;;6225127;23;20410;-77
2023/07/26 06:16:56;;;;;;;6.60;2.03;;;;;;;;;;6225943;23;20605;-78
2023/07/26 06:19:23;;;;;;;4.53;1.80;;;;;;;;;;6229159;23;20460;-79
2023/07/26 06:21:55;;;;;;;3.67;1.90;;;;;;;;;;6227365;23;20418;-78
2023/07/26 06:24:26;;;;;;;3.23;1.97;;;;;;;;;;6221174;23;20468;-79
2023/07/26 06:26:57;;;;;;;4.43;1.73;;;;;;;;;;6216345;23;20828;-79
2023/07/26 06:29:24;;;;;;;4.97;1.90;;;;;;;;;;6220179;23;20613;-78
2023/07/26 06:31:54;;;;;;;4.37;2.23;;;;;;;;;;6222613;23;20418;-79
2023/07/26 06:34:26;;;;;;;4.40;1.90;;;;;;;;;;6224362;23;20592;-78
2023/07/26 06:36:53;;;;;;;2.40;1.40;;;;;;;;;;6223589;23;20421;-78
2023/07/26 06:39:22;;;;;;;3.27;1.40;;;;;;;;;;6223082;23;20426;-78
2023/07/26 06:41:49;;;;;;;4.10;1.50;;;;;;;;;;6223168;23;20418;-78
2023/07/26 06:44:18;;;;;;;3.70;1.60;;;;;;;;;;6225022;23;20417;-79
2023/07/26 06:46:45;;;;;;;5.63;2.00;;;;;;;;;;6220572;23;20449;-80
2023/07/26 06:49:14;;;;;;;5.27;1.67;;;;;;;;;;6216084;23;20414;-79
2023/07/26 06:51:42;;;;;;;3.90;2.13;;;;;;;;;;6214514;23;20425;-79
2023/07/26 06:54:10;;;;;;;5.93;2.00;;;;;;;;;;6216012;23;20422;-78
2023/07/26 06:56:44;;;;;;;3.57;1.50;;;;;;;;;;6215713;23;20441;-78
2023/07/26 06:59:15;;;;;;;3.27;1.87;;;;;;;;;;6217510;23;20440;-79
2023/07/26 07:01:45;;;;;;;4.57;2.07;;;;;;;;;;6219711;23;20402;-78
2023/07/26 07:04:14;;;;;;;6.77;1.90;;;;;;;;;;6220344;23;20421;-77
2023/07/26 07:06:42;;;;;;;3.47;1.60;;;;;;;;;;6221430;23;20456;-78
2023/07/26 07:09:10;;;;;;;3.50;1.93;;;;;;;;;;6226675;23;20420;-78
2023/07/26 07:11:40;;;;;;;3.20;2.20;;;;;;;;;;6228878;23;20422;-78
2023/07/26 07:14:11;;;;;;;6.30;1.93;;;;;;;;;;6223845;23;20419;-77
2023/07/26 07:16:40;;;;;;;5.03;1.73;;;;;;;;;;6220811;23;20391;-78
2023/07/26 07:19:08;;;;;;;3.33;1.63;;;;;;;;;;6220920;23;20446;-78
2023/07/26 07:21:39;;;;;;;3.63;2.10;;;;;;;;;;6225871;23;20855;-78
2023/07/26 07:24:11;;;;;;;4.03;2.00;;;;;;;;;;6227203;23;20410;-80
2023/07/26 07:26:40;;;;;;;5.03;1.80;;;;;;;;;;6223024;23;20417;-79
2023/07/26 07:29:10;;;;;;;4.60;1.70;;;;;;;;;;6223181;23;20474;-78
2023/07/26 07:31:38;;;;;;;4.93;2.10;;;;;;;;;;6219136;23;20437;-79
2023/07/26 07:34:07;;;;;;;2.90;1.40;;;;;;;;;;6217363;23;20677;-77
2023/07/26 07:36:38;;;;;;;3.30;1.53;;;;;;;;;;6217097;23;20513;-79
2023/07/26 07:39:09;;;;;;;5.50;1.80;;;;;;;;;;6216624;23;20701;-78
2023/07/26 07:41:37;;;;;;;4.13;1.57;;;;;;;;;;6214808;23;20674;-80
2023/07/26 07:44:04;;;;;;;3.60;1.53;;;;;;;;;;6216049;23;20409;-79
2023/07/26 07:46:34;;;;;;;3.97;1.50;;;;;;;;;;6219592;23;20410;-77
2023/07/26 07:49:01;;;;;;;4.37;1.47;;;;;;;;;;6219277;23;20892;-78
2023/07/26 07:51:29;;;;;;;3.83;1.60;;;;;;;;;;6216375;23;20536;-79
2023/07/26 07:53:56;;;;;;;5.03;1.60;;;;;;;;;;6214928;23;20421;-80
2023/07/26 07:56:25;;;;;;;11.03;1.77;;;;;;;;;;6213249;23;20413;-80
2023/07/26 07:58:53;;;;;;;4.87;3.50;;;;;;;;;;6211341;23;20430;-79
2023/07/26 08:01:20;;;;;;;6.77;2.00;;;;;;;;;;6213381;23;20480;-79
2023/07/26 08:03:47;;;;;;;8.90;1.80;;;;;;;;;;6213568;23;20421;-79
2023/07/26 08:06:15;;;;;;;6.03;1.80;;;;;;;;;;6214406;23;20441;-79
2023/07/26 08:08:43;;;;;;;3.70;1.33;;;;;;;;;;6214441;23;20425;-79
2023/07/26 08:11:11;;;;;;;3.83;1.50;;;;;;;;;;6219178;23;21150;-79
2023/07/26 08:13:39;;;;;;;6.03;1.60;;;;;;;;;;6220144;23;20482;-79
2023/07/26 08:16:10;;;;;;;4.10;1.87;;;;;;;;;;6222162;23;20866;-78
2023/07/26 08:18:48;;;;;;;4.70;1.23;;;;;;;;;;6217486;23;20437;-79
2023/07/26 08:21:16;;;;;;;5.10;1.83;;;;;;;;;;6218443;23;20778;-79
2023/07/26 08:23:50;;;;;;;2.87;1.40;;;;;;;;;;6216419;23;20426;-79
2023/07/26 08:26:18;;;;;;;3.60;1.97;;;;;;;;;;6219437;23;20508;-78
2023/07/26 08:28:47;;;;;;;5.53;1.90;;;;;;;;;;6218412;23;20397;-79
2023/07/26 08:31:15;;;;;;;5.50;3.00;;;;;;;;;;6219841;23;20836;-78
2023/07/26 08:33:43;;;;;;;4.90;1.67;;;;;;;;;;6224819;23;21137;-79
2023/07/26 08:36:10;;;;;;;3.20;1.13;;;;;;;;;;6223900;23;20430;-79
2023/07/26 08:38:38;;;;;;;3.80;1.40;;;;;;;;;;6226047;23;20804;-79
2023/07/26 08:41:08;;;;;;;4.40;1.43;;;;;;;;;;6226515;23;20421;-79
2023/07/26 08:43:37;;;;;;;2.50;1.10;;;;;;;;;;6223965;23;20445;-79
2023/07/26 08:46:07;;;;;;;2.80;1.30;;;;;;;;;;6223538;23;20414;-79
2023/07/26 08:48:35;;;;;;;5.00;1.30;;;;;;;;;;6223535;23;20442;-78
2023/07/26 08:51:03;;;;;;;2.63;1.30;;;;;;;;;;6223762;23;20453;-77
2023/07/26 08:53:31;;;;;;;10.33;1.90;;;;;;;;;;6219110;23;20441;-77
2023/07/26 08:55:58;;;;;;;2.50;1.07;;;;;;;;;;6216302;23;20391;-77
2023/07/26 08:58:27;;;;;;;4.03;1.53;;;;;;;;;;6217327;23;20390;-77
2023/07/26 09:00:55;;;;;;;4.73;1.27;;;;;;;;;;6220109;23;20501;-79
2023/07/26 09:03:25;;;;;;;3.57;1.47;;;;;;;;;;6220211;23;20408;-79
2023/07/26 09:06:03;;;;;;;2.43;1.07;;;;;;;;;;6220337;23;20433;-78
2023/07/26 09:08:31;;;;;;;7.73;1.47;;;;;;;;;;6226741;23;20402;-77
2023/07/26 09:11:01;;;;;;;3.30;1.50;;;;;;;;;;6223462;23;20641;-80
2023/07/26 09:13:29;;;;;;;6.90;1.63;;;;;;;;;;6219533;23;20394;-79
2023/07/26 09:16:00;;;;;;;3.87;1.67;;;;;;;;;;6219678;23;20628;-79
2023/07/26 09:18:30;;;;;;;2.47;1.03;;;;;;;;;;6224815;23;20600;-79
2023/07/26 09:21:06;;;;;;;5.53;1.53;;;;;;;;;;6224109;23;20434;-77
2023/07/26 09:23:45;;;;;;;3.40;1.27;;;;;;;;;;6226876;23;20504;-78
2023/07/26 09:26:13;;;;;;;2.40;1.30;;;;;;;;;;6219887;23;20471;-77
2023/07/26 09:28:52;;;;;;;3.57;1.37;;;;;;;;;;6227068;23;20824;-78
2023/07/26 09:31:30;;;;;;;4.30;1.93;;;;;;;;;;6218739;23;20453;-79
2023/07/26 09:34:07;;;;;;;6.63;1.67;;;;;;;;;;6222441;23;20493;-79
2023/07/26 09:36:42;;;;;;;5.03;1.47;;;;;;;;;;6223745;23;20445;-78
2023/07/26 09:39:11;;;;;;;4.00;1.40;;;;;;;;;;6220049;23;21038;-78
2023/07/26 09:41:39;;;;;;;5.70;1.27;;;;;;;;;;6224353;23;20469;-78
2023/07/26 09:44:11;;;;;;;3.60;1.40;;;;;;;;;;6223118;23;20967;-78
2023/07/26 09:46:54;;;;;;;2.53;1.00;;;;;;;;;;6221802;23;20391;-78
2023/07/26 09:49:29;;;;;;;2.77;1.53;;;;;;;;;;6217243;23;20556;-80
2023/07/26 09:51:59;;;;;;;2.27;1.13;;;;;;;;;;6217824;23;20421;-78
2023/07/26 09:54:28;;;;;;;4.90;1.40;;;;;;;;;;6213649;23;20860;-79
2023/07/26 09:56:56;;;;;;;3.10;1.27;;;;;;;;;;6212843;23;20421;-78
2023/07/26 09:59:27;;;;;;;4.37;1.70;;;;;;;;;;6217071;23;20510;-79
2023/07/26 10:01:56;;;;;;;4.03;1.90;;;;;;;;;;6219288;23;20394;-79
2023/07/26 10:04:29;;;;;;;3.70;1.00;;;;;;;;;;6218686;23;20393;-79
2023/07/26 10:06:58;;;;;;;4.87;1.97;;;;;;;;;;6220476;23;20517;-79
2023/07/26 10:09:27;;;;;;;2.17;1.10;;;;;;;;;;6222187;23;20410;-80
2023/07/26 10:11:57;;;;;;;2.50;1.27;;;;;;;;;;6218895;23;20590;-80
2023/07/26 10:14:30;;;;;;;2.67;1.20;;;;;;;;;;6216466;23;21055;-79
2023/07/26 10:16:58;;;;;;;3.60;1.30;;;;;;;;;;6214991;23;21191;-79
2023/07/26 10:19:29;;;;;;;2.60;1.07;;;;;;;;;;6215644;23;20452;-78
2023/07/26 10:21:57;;;;;;;5.60;1.20;;;;;;;;;;6219903;23;20413;-78
2023/07/26 10:24:25;;;;;;;4.83;1.43;;;;;;;;;;6222073;23;20394;-78
2023/07/26 10:26:53;;;;;;;4.57;1.27;;;;;;;;;;6220703;23;20630;-78
2023/07/26 10:29:21;;;;;;;1.83;0.97;;;;;;;;;;6223316;23;20418;-78
2023/07/26 10:31:49;;;;;;;2.43;1.10;;;;;;;;;;6218044;23;20383;-78
2023/07/26 10:34:23;;;;;;;3.60;1.53;;;;;;;;;;6215504;23;20414;-78
2023/07/26 10:36:54;;;;;;;2.30;1.10;;;;;;;;;;6218899;23;20532;-78
2023/07/26 10:39:29;;;;;;;2.47;1.50;;;;;;;;;;6217277;23;20426;-77
2023/07/26 10:41:59;;;;;;;2.53;1.33;;;;;;;;;;6218834;23;20441;-78
2023/07/26 10:44:28;;;;;;;2.43;1.03;;;;;;;;;;6191085;23;20452;-79
2023/07/26 10:46:56;;;;;;;2.97;1.23;;;;;;;;;;6222996;23;20390;-77
2023/07/26 10:49:27;;;;;;;2.20;0.83;;;;;;;;;;6222105;23;21088;-78
2023/07/26 10:52:03;;;;;;;2.57;1.27;;;;;;;;;;6217873;23;20835;-78
2023/07/26 10:54:35;;;;;;;4.90;1.20;;;;;;;;;;6218129;23;20410;-78
2023/07/26 10:57:20;;;;;;;2.30;1.23;;;;;;;;;;6218903;23;20424;-78
2023/07/26 10:59:52;;;;;;;3.67;1.40;;;;;;;;;;6217373;23;20420;-78
2023/07/26 11:02:39;;;;;;;3.03;1.00;;;;;;;;;;6221812;23;20418;-78
2023/07/26 11:05:09;;;;;;;2.27;1.10;;;;;;;;;;6220316;23;20541;-78
2023/07/26 11:07:58;;;;;;;2.33;0.90;;;;;;;;;;6218993;23;20410;-78
2023/07/26 11:10:35;;;;;;;3.00;1.23;;;;;;;;;;6219210;23;20393;-78
2023/07/26 11:13:09;;;;;;;4.20;1.20;;;;;;;;;;6215783;23;20394;-78
2023/07/26 11:15:37;;;;;;;4.10;1.70;;;;;;;;;;6214039;23;20704;-78
2023/07/26 11:18:05;;;;;;;3.33;1.20;;;;;;;;;;6218546;23;20413;-77
2023/07/26 11:20:40;;;;;;;7.87;5.30;;;;;;;;;;6222107;23;20454;-78
2023/07/26 11:23:22;;;;;;;2.90;1.10;;;;;;;;;;6221129;23;20497;-77
2023/07/26 11:26:00;;;;;;;2.50;1.40;;;;;;;;;;6221659;23;20410;-79
2023/07/26 11:28:31;;;;;;;3.17;1.00;;;;;;;;;;6223819;23;20410;-80
2023/07/26 11:31:06;;;;;;;7.40;3.00;;;;;;;;;;6228881;23;20408;-79
2023/07/26 11:33:35;;;;;;;2.63;1.50;;;;;;;;;;6222450;23;20413;-78
2023/07/26 11:36:05;;;;;;;3.30;1.23;;;;;;;;;;6223669;23;20414;-78
2023/07/26 11:38:34;;;;;;;2.67;1.10;;;;;;;;;;6223616;23;20436;-77
2023/07/26 11:41:05;;;;;;;3.17;1.10;;;;;;;;;;6226218;23;20429;-77
2023/07/26 11:43:35;;;;;;;2.40;1.30;;;;;;;;;;6219971;23;20442;-77
2023/07/26 11:46:04;;;;;;;4.73;1.93;;;;;;;;;;6222002;23;20514;-78
2023/07/26 11:48:33;;;;;;;2.13;0.93;;;;;;;;;;6227146;23;20745;-78
2023/07/26 11:51:09;;;;;;;2.40;1.13;;;;;;;;;;6225840;23;20405;-77
2023/07/26 11:53:42;;;;;;;2.70;1.20;;;;;;;;;;6199798;23;20410;-78
2023/07/26 11:56:11;;;;;;;7.17;4.53;;;;;;;;;;6220136;23;20418;-79
2023/07/26 11:58:44;;;;;;;3.00;1.60;;;;;;;;;;6219266;23;20473;-78
2023/07/26 12:01:12;;;;;;;2.67;1.27;;;;;;;;;;6222653;23;20446;-79
2023/07/26 12:03:40;;;;;;;2.87;1.20;;;;;;;;;;6219855;23;20562;-79
2023/07/26 12:06:09;;;;;;;3.03;1.33;;;;;;;;;;6221518;23;20441;-79
2023/07/26 12:08:38;;;;;;;2.27;1.30;;;;;;;;;;6220565;23;20401;-80
2023/07/26 12:11:17;;;;;;;2.30;1.00;;;;;;;;;;6221659;23;20528;-78
2023/07/26 12:13:47;;;;;;;2.13;0.90;;;;;;;;;;6220284;23;20410;-78
2023/07/26 12:16:15;;;;;;;2.93;1.00;;;;;;;;;;6218072;23;20460;-78
2023/07/26 12:18:51;;;;;;;2.10;0.90;;;;;;;;;;6219817;23;20428;-78
2023/07/26 12:21:25;;;;;;;2.00;1.00;;;;;;;;;;6223027;23;20446;-79
2023/07/26 12:23:55;;;;;;;2.07;0.97;;;;;;;;;;6226853;23;20454;-79
2023/07/26 12:26:24;;;;;;;2.57;1.07;;;;;;;;;;6220690;23;20406;-79
2023/07/26 12:28:54;;;;;;;2.37;1.00;;;;;;;;;;6226853;23;20414;-80
2023/07/26 12:31:26;;;;;;;3.40;1.10;;;;;;;;;;6223294;23;20428;-79
2023/07/26 12:34:03;;;;;;;2.10;0.80;;;;;;;;;;6221128;23;20421;-78
2023/07/26 12:36:32;;;;;;;2.10;1.10;;;;;;;;;;6226970;23;20424;-78
2023/07/26 12:39:02;;;;;;;2.70;1.10;;;;;;;;;;6227193;23;20505;-78
2023/07/26 12:41:31;;;;;;;2.07;1.00;;;;;;;;;;6232057;23;20414;-80
2023/07/26 12:44:00;;;;;;;1.90;0.90;;;;;;;;;;6225670;23;20437;-79
2023/07/26 12:46:39;;;;;;;2.43;1.20;;;;;;;;;;6227635;23;20418;-78
2023/07/26 12:49:10;;;;;;;2.10;0.87;;;;;;;;;;6225262;23;20449;-76
2023/07/26 12:51:39;;;;;;;2.93;1.43;;;;;;;;;;6223154;23;20414;-77
2023/07/26 12:54:11;;;;;;;3.43;2.07;;;;;;;;;;6230245;23;20430;-77
2023/07/26 12:57:00;;;;;;;2.40;1.20;;;;;;;;;;6226666;23;20394;-79
2023/07/26 12:59:34;;;;;;;4.23;1.60;;;;;;;;;;6227256;23;20390;-79
2023/07/26 13:02:09;;;;;;;5.60;1.73;;;;;;;;;;6226558;23;20445;-78
2023/07/26 13:04:38;;;;;;;2.90;1.63;;;;;;;;;;6227585;23;20406;-80
2023/07/26 13:07:08;;;;;;;2.20;1.10;;;;;;;;;;6225066;23;20418;-79
2023/07/26 13:09:35;;;;;;;3.83;0.87;;;;;;;;;;6227849;23;20407;-78
2023/07/26 13:12:05;;;;;;;8.77;1.97;;;;;;;;;;6222314;23;20462;-78
2023/07/26 13:14:38;;;;;;;2.17;0.80;;;;;;;;;;6227967;23;20378;-77
2023/07/26 13:17:06;;;;;;;4.47;2.00;;;;;;;;;;6221659;23;20410;-79
2023/07/26 13:19:34;;;;;;;3.23;1.60;;;;;;;;;;6223342;23;20406;-79
2023/07/26 13:22:02;;;;;;;3.93;1.33;;;;;;;;;;6227761;23;20446;-79
2023/07/26 13:24:31;;;;;;;4.93;2.23;;;;;;;;;;6227656;23;20498;-79
2023/07/26 13:27:00;;;;;;;5.80;3.90;;;;;;;;;;6223898;23;20398;-79
2023/07/26 13:29:30;;;;;;;4.97;2.10;;;;;;;;;;6227089;23;20587;-79
2023/07/26 13:32:04;;;;;;;4.17;1.40;;;;;;;;;;6225428;23;20816;-78
2023/07/26 13:34:33;;;;;;;6.60;1.80;;;;;;;;;;6222240;23;20596;-78
2023/07/26 13:37:00;;;;;;;3.47;1.63;;;;;;;;;;6223916;23;20387;-79
2023/07/26 13:39:29;;;;;;;6.10;1.80;;;;;;;;;;6221620;23;20382;-79
2023/07/26 13:41:58;;;;;;;2.93;1.60;;;;;;;;;;6226642;23;20457;-78
2023/07/26 13:44:31;;;;;;;2.90;1.90;;;;;;;;;;6230703;23;20410;-79
2023/07/26 13:47:03;;;;;;;3.03;1.47;;;;;;;;;;6225278;23;20406;-79
2023/07/26 13:49:47;;;;;;;2.63;1.40;;;;;;;;;;6222379;23;20426;-79
2023/07/26 13:52:15;;;;;;;5.50;3.20;;;;;;;;;;6227594;23;20445;-79
2023/07/26 13:54:44;;;;;;;5.30;2.87;;;;;;;;;;6226066;23;20391;-78
2023/07/26 13:57:11;;;;;;;4.30;2.20;;;;;;;;;;6228180;23;20417;-79
2023/07/26 13:59:40;;;;;;;4.40;1.50;;;;;;;;;;6226426;23;20870;-77
2023/07/26 14:02:08;;;;;;;4.67;1.80;;;;;;;;;;6221891;23;21111;-79
2023/07/26 14:04:39;;;;;;;2.70;1.90;;;;;;;;;;6228374;23;20456;-78
2023/07/26 14:07:10;;;;;;;3.60;2.07;;;;;;;;;;6195530;23;20379;-79
2023/07/26 14:09:38;;;;;;;3.20;2.10;;;;;;;;;;6196373;23;20372;-78
2023/07/26 14:12:07;;;;;;;2.17;1.33;;;;;;;;;;6192632;23;20403;-79
2023/07/26 14:14:37;;;;;;;3.60;2.10;;;;;;;;;;6190870;23;20505;-80
2023/07/26 14:17:08;;;;;;;4.07;1.80;;;;;;;;;;6189344;23;20426;-79
2023/07/26 14:20:12;;;;;;;4.40;1.20;;;;;;;;;;6198971;23;20450;-79
2023/07/26 14:22:41;;;;;;;3.20;1.57;;;;;;;;;;6211367;23;20453;-80
2023/07/26 14:25:10;;;;;;;3.00;1.60;;;;;;;;;;6218235;23;20425;-80
2023/07/26 14:27:47;;;;;;;2.90;1.10;;;;;;;;;;6223062;23;20445;-79
2023/07/26 14:30:21;;;;;;;7.40;1.90;;;;;;;;;;6222868;23;20516;-80
2023/07/26 14:32:52;;;;;;;4.13;1.60;;;;;;;;;;6227059;23;20386;-79
2023/07/26 14:35:23;;;;;;;6.27;3.13;;;;;;;;;;6219566;23;20395;-79
2023/07/26 14:37:52;;;;;;;2.83;1.73;;;;;;;;;;6219604;23;20421;-80
2023/07/26 14:40:22;;;;;;;2.97;1.37;;;;;;;;;;6221446;23;20995;-81
2023/07/26 14:42:58;;;;;;;2.27;1.20;;;;;;;;;;6219843;23;20484;-79
2023/07/26 14:45:34;;;;;;;2.63;1.57;;;;;;;;;;6219367;23;20410;-78
2023/07/26 14:48:02;;;;;;;5.43;3.10;;;;;;;;;;6225289;23;20534;-78
2023/07/26 14:50:29;;;;;;;4.80;1.73;;;;;;;;;;6225268;23;20423;-78
2023/07/26 14:53:00;;;;;;;3.00;1.70;;;;;;;;;;6227371;23;20410;-78
2023/07/26 14:55:28;;;;;;;2.50;1.43;;;;;;;;;;6219262;23;20410;-77
2023/07/26 14:57:56;;;;;;;5.40;3.10;;;;;;;;;;6218542;23;20414;-78